sensor_id;sensor_type;location;lat;lon;timestamp;temperature;humidity
30206;DHT22;17010;51.306;3.150;2023-03-20T00:02:06;5.30;99.90
30206;DHT22;17010;51.306;3.150;2023-03-20T00:04:33;5.30;99.90
30206;DHT22;17010;51.306;3.150;2023-03-20T00:06:59;5.40;99.90
30206;DHT22;17010;51.306;3.150;2023-03-20T00:09:25;5.40;99.90
30206;DHT22;17010;51.306;3.150;2023-03-20T00:11:52;5.50;99.90
30206;DHT22;17010;51.306;3.150;2023-03-20T00:14:21;5.50;99.90
30206;DHT22;17010;51.306;3.150;2023-03-20T00:16:49;5.60;99.90
30206;DHT22;17010;51.306;3.150;2023-03-20T00:19:19;5.60;99.90
30206;DHT22;17010;51.306;3.150;2023-03-20T00:21:46;5.70;99.90
30206;DHT22;17010;51.306;3.150;2023-03-20T00:24:13;5.70;99.90
30206;DHT22;17010;51.306;3.150;2023-03-20T00:26:40;5.80;99.90
30206;DHT22;17010;51.306;3.150;2023-03-20T00:29:09;5.90;99.90
30206;DHT22;17010;51.306;3.150;2023-03-20T00:31:39;5.90;99.90
30206;DHT22;17010;51.306;3.150;2023-03-20T00:34:11;5.80;99.90
30206;DHT22;17010;51.306;3.150;2023-03-20T00:36:37;5.90;99.90
30206;DHT22;17010;51.306;3.150;2023-03-20T00:39:04;5.90;99.90
30206;DHT22;17010;51.306;3.150;2023-03-20T00:41:38;5.90;99.90
30206;DHT22;17010;51.306;3.150;2023-03-20T00:44:20;5.90;99.90
30206;DHT22;17010;51.306;3.150;2023-03-20T00:46:57;5.90;99.90
30206;DHT22;17010;51.306;3.150;2023-03-20T00:49:29;5.90;99.90
30206;DHT22;17010;51.306;3.150;2023-03-20T00:51:56;5.90;99.90
30206;DHT22;17010;51.306;3.150;2023-03-20T00:54:23;6.00;99.90
30206;DHT22;17010;51.306;3.150;2023-03-20T00:57:02;6.00;99.90
30206;DHT22;17010;51.306;3.150;2023-03-20T00:59:36;6.00;99.90
30206;DHT22;17010;51.306;3.150;2023-03-20T01:02:05;6.00;99.90
30206;DHT22;17010;51.306;3.150;2023-03-20T01:04:36;6.00;99.90
30206;DHT22;17010;51.306;3.150;2023-03-20T01:07:04;6.10;99.90
30206;DHT22;17010;51.306;3.150;2023-03-20T01:09:30;6.10;99.90
30206;DHT22;17010;51.306;3.150;2023-03-20T01:11:58;6.00;99.90
30206;DHT22;17010;51.306;3.150;2023-03-20T01:14:25;6.00;99.90
30206;DHT22;17010;51.306;3.150;2023-03-20T01:16:51;6.00;99.90
30206;DHT22;17010;51.306;3.150;2023-03-20T01:19:17;6.00;99.90
30206;DHT22;17010;51.306;3.150;2023-03-20T01:21:43;6.00;99.90
30206;DHT22;17010;51.306;3.150;2023-03-20T01:24:10;6.00;99.90
30206;DHT22;17010;51.306;3.150;2023-03-20T01:26:40;5.90;99.90
30206;DHT22;17010;51.306;3.150;2023-03-20T01:29:24;5.90;99.90
30206;DHT22;17010;51.306;3.150;2023-03-20T01:31:52;5.90;99.90
30206;DHT22;17010;51.306;3.150;2023-03-20T01:34:19;5.90;99.90
30206;DHT22;17010;51.306;3.150;2023-03-20T01:36:53;6.00;99.90
30206;DHT22;17010;51.306;3.150;2023-03-20T01:39:21;5.90;99.90
30206;DHT22;17010;51.306;3.150;2023-03-20T01:41:50;5.90;99.90
30206;DHT22;17010;51.306;3.150;2023-03-20T01:44:25;5.90;99.90
30206;DHT22;17010;51.306;3.150;2023-03-20T01:46:53;5.90;99.90
30206;DHT22;17010;51.306;3.150;2023-03-20T01:51:47;6.00;99.90
30206;DHT22;17010;51.306;3.150;2023-03-20T01:54:31;6.00;99.90
30206;DHT22;17010;51.306;3.150;2023-03-20T01:57:00;6.00;99.90
30206;DHT22;17010;51.306;3.150;2023-03-20T01:59:46;6.00;99.90
30206;DHT22;17010;51.306;3.150;2023-03-20T02:02:16;6.10;99.90
30206;DHT22;17010;51.306;3.150;2023-03-20T02:04:45;6.10;99.90
30206;DHT22;17010;51.306;3.150;2023-03-20T02:07:13;6.10;99.90
30206;DHT22;17010;51.306;3.150;2023-03-20T02:09:41;6.10;99.90
30206;DHT22;17010;51.306;3.150;2023-03-20T02:12:07;6.20;99.90
30206;DHT22;17010;51.306;3.150;2023-03-20T02:14:34;6.20;99.90
30206;DHT22;17010;51.306;3.150;2023-03-20T02:17:02;6.20;99.90
30206;DHT22;17010;51.306;3.150;2023-03-20T02:19:39;6.20;99.90
30206;DHT22;17010;51.306;3.150;2023-03-20T02:37:26;6.40;99.90
30206;DHT22;17010;51.306;3.150;2023-03-20T02:42:45;6.40;99.90
30206;DHT22;17010;51.306;3.150;2023-03-20T02:50:50;6.50;99.90
30206;DHT22;17010;51.306;3.150;2023-03-20T02:54:28;6.50;99.90
30206;DHT22;17010;51.306;3.150;2023-03-20T02:56:36;6.50;99.90
30206;DHT22;17010;51.306;3.150;2023-03-20T02:59:22;6.50;99.90
30206;DHT22;17010;51.306;3.150;2023-03-20T03:01:58;6.50;99.90
30206;DHT22;17010;51.306;3.150;2023-03-20T03:04:30;6.50;99.90
30206;DHT22;17010;51.306;3.150;2023-03-20T03:06:58;6.50;99.90
30206;DHT22;17010;51.306;3.150;2023-03-20T03:09:28;6.60;99.90
30206;DHT22;17010;51.306;3.150;2023-03-20T03:12:05;6.60;99.90
30206;DHT22;17010;51.306;3.150;2023-03-20T03:14:47;6.70;99.90
30206;DHT22;17010;51.306;3.150;2023-03-20T03:17:15;6.60;99.90
30206;DHT22;17010;51.306;3.150;2023-03-20T03:19:47;6.70;99.90
30206;DHT22;17010;51.306;3.150;2023-03-20T03:22:15;6.70;99.90
30206;DHT22;17010;51.306;3.150;2023-03-20T03:24:50;6.60;99.90
30206;DHT22;17010;51.306;3.150;2023-03-20T03:29:49;6.70;99.90
30206;DHT22;17010;51.306;3.150;2023-03-20T03:32:25;6.80;99.90
30206;DHT22;17010;51.306;3.150;2023-03-20T03:34:52;6.80;99.90
30206;DHT22;17010;51.306;3.150;2023-03-20T03:40:30;6.90;99.90
30206;DHT22;17010;51.306;3.150;2023-03-20T03:43:05;6.80;99.90
30206;DHT22;17010;51.306;3.150;2023-03-20T03:45:39;6.80;99.90
30206;DHT22;17010;51.306;3.150;2023-03-20T03:48:25;6.90;99.90
30206;DHT22;17010;51.306;3.150;2023-03-20T03:50:53;6.90;99.90
30206;DHT22;17010;51.306;3.150;2023-03-20T03:53:30;6.90;99.90
30206;DHT22;17010;51.306;3.150;2023-03-20T03:55:59;6.90;99.90
30206;DHT22;17010;51.306;3.150;2023-03-20T03:58:33;6.90;99.90
30206;DHT22;17010;51.306;3.150;2023-03-20T04:01:02;6.90;99.90
30206;DHT22;17010;51.306;3.150;2023-03-20T04:03:31;7.00;99.90
30206;DHT22;17010;51.306;3.150;2023-03-20T04:05:58;7.00;99.90
30206;DHT22;17010;51.306;3.150;2023-03-20T04:08:25;7.00;99.90
30206;DHT22;17010;51.306;3.150;2023-03-20T04:10:52;7.00;99.90
30206;DHT22;17010;51.306;3.150;2023-03-20T04:13:18;7.00;99.90
30206;DHT22;17010;51.306;3.150;2023-03-20T04:15:44;7.10;99.90
30206;DHT22;17010;51.306;3.150;2023-03-20T04:18:15;7.10;99.90
30206;DHT22;17010;51.306;3.150;2023-03-20T04:20:43;7.10;99.90
30206;DHT22;17010;51.306;3.150;2023-03-20T04:23:09;7.10;99.90
30206;DHT22;17010;51.306;3.150;2023-03-20T04:25:36;7.10;99.90
30206;DHT22;17010;51.306;3.150;2023-03-20T04:28:02;7.10;99.90
30206;DHT22;17010;51.306;3.150;2023-03-20T04:30:28;7.20;99.90
30206;DHT22;17010;51.306;3.150;2023-03-20T04:32:54;7.20;99.90
30206;DHT22;17010;51.306;3.150;2023-03-20T04:35:21;7.20;99.90
30206;DHT22;17010;51.306;3.150;2023-03-20T04:37:47;7.20;99.90
30206;DHT22;17010;51.306;3.150;2023-03-20T04:40:13;7.20;99.90
30206;DHT22;17010;51.306;3.150;2023-03-20T04:42:39;7.20;99.90
30206;DHT22;17010;51.306;3.150;2023-03-20T04:45:06;7.20;99.90
30206;DHT22;17010;51.306;3.150;2023-03-20T04:47:33;7.30;99.90
30206;DHT22;17010;51.306;3.150;2023-03-20T04:49:59;7.30;99.90
30206;DHT22;17010;51.306;3.150;2023-03-20T04:52:25;7.30;99.90
30206;DHT22;17010;51.306;3.150;2023-03-20T04:54:51;7.30;99.90
30206;DHT22;17010;51.306;3.150;2023-03-20T04:57:17;7.40;99.90
30206;DHT22;17010;51.306;3.150;2023-03-20T04:59:46;7.40;99.90
30206;DHT22;17010;51.306;3.150;2023-03-20T05:02:12;7.30;99.90
30206;DHT22;17010;51.306;3.150;2023-03-20T05:04:41;7.40;99.90
30206;DHT22;17010;51.306;3.150;2023-03-20T05:07:07;7.40;99.90
30206;DHT22;17010;51.306;3.150;2023-03-20T05:09:33;7.40;99.90
30206;DHT22;17010;51.306;3.150;2023-03-20T05:12:00;7.40;99.90
30206;DHT22;17010;51.306;3.150;2023-03-20T05:14:26;7.40;99.90
30206;DHT22;17010;51.306;3.150;2023-03-20T05:16:52;7.40;99.90
30206;DHT22;17010;51.306;3.150;2023-03-20T05:19:18;7.40;99.90
30206;DHT22;17010;51.306;3.150;2023-03-20T05:21:44;7.40;99.90
30206;DHT22;17010;51.306;3.150;2023-03-20T05:24:11;7.40;99.90
30206;DHT22;17010;51.306;3.150;2023-03-20T05:26:37;7.40;99.90
30206;DHT22;17010;51.306;3.150;2023-03-20T05:29:03;7.40;99.90
30206;DHT22;17010;51.306;3.150;2023-03-20T05:31:29;7.50;99.90
30206;DHT22;17010;51.306;3.150;2023-03-20T05:33:55;7.50;99.90
30206;DHT22;17010;51.306;3.150;2023-03-20T05:36:22;7.50;99.90
30206;DHT22;17010;51.306;3.150;2023-03-20T05:38:48;7.50;99.90
30206;DHT22;17010;51.306;3.150;2023-03-20T05:41:14;7.50;99.90
30206;DHT22;17010;51.306;3.150;2023-03-20T05:43:41;7.60;99.90
30206;DHT22;17010;51.306;3.150;2023-03-20T05:46:07;7.50;99.90
30206;DHT22;17010;51.306;3.150;2023-03-20T05:48:33;7.50;99.90
30206;DHT22;17010;51.306;3.150;2023-03-20T05:51:00;7.40;99.90
30206;DHT22;17010;51.306;3.150;2023-03-20T05:53:26;7.50;99.90
30206;DHT22;17010;51.306;3.150;2023-03-20T05:55:52;7.50;99.90
30206;DHT22;17010;51.306;3.150;2023-03-20T05:58:18;7.50;99.90
30206;DHT22;17010;51.306;3.150;2023-03-20T06:00:45;7.50;99.90
30206;DHT22;17010;51.306;3.150;2023-03-20T06:03:11;7.60;99.90
30206;DHT22;17010;51.306;3.150;2023-03-20T06:05:37;7.60;99.90
30206;DHT22;17010;51.306;3.150;2023-03-20T06:08:04;7.60;99.90
30206;DHT22;17010;51.306;3.150;2023-03-20T06:10:30;7.60;99.90
30206;DHT22;17010;51.306;3.150;2023-03-20T06:12:57;7.60;99.90
30206;DHT22;17010;51.306;3.150;2023-03-20T06:15:26;7.60;99.90
30206;DHT22;17010;51.306;3.150;2023-03-20T06:17:54;7.50;99.90
30206;DHT22;17010;51.306;3.150;2023-03-20T06:20:20;7.50;99.90
30206;DHT22;17010;51.306;3.150;2023-03-20T06:22:47;7.60;99.90
30206;DHT22;17010;51.306;3.150;2023-03-20T06:25:13;7.60;99.90
30206;DHT22;17010;51.306;3.150;2023-03-20T06:27:39;7.70;99.90
30206;DHT22;17010;51.306;3.150;2023-03-20T06:30:06;7.60;99.90
30206;DHT22;17010;51.306;3.150;2023-03-20T06:32:32;7.60;99.90
30206;DHT22;17010;51.306;3.150;2023-03-20T06:34:59;7.60;99.90
30206;DHT22;17010;51.306;3.150;2023-03-20T06:37:25;7.70;99.90
30206;DHT22;17010;51.306;3.150;2023-03-20T06:39:51;7.70;99.90
30206;DHT22;17010;51.306;3.150;2023-03-20T06:42:18;7.80;99.90
30206;DHT22;17010;51.306;3.150;2023-03-20T06:44:44;7.80;99.90
30206;DHT22;17010;51.306;3.150;2023-03-20T06:47:10;7.80;99.90
30206;DHT22;17010;51.306;3.150;2023-03-20T06:49:36;7.90;99.90
30206;DHT22;17010;51.306;3.150;2023-03-20T06:52:03;7.90;99.90
30206;DHT22;17010;51.306;3.150;2023-03-20T06:54:29;7.90;99.90
30206;DHT22;17010;51.306;3.150;2023-03-20T06:56:56;8.00;99.90
30206;DHT22;17010;51.306;3.150;2023-03-20T06:59:22;8.00;99.90
30206;DHT22;17010;51.306;3.150;2023-03-20T07:01:48;8.10;99.90
30206;DHT22;17010;51.306;3.150;2023-03-20T07:04:15;8.20;99.90
30206;DHT22;17010;51.306;3.150;2023-03-20T07:06:42;8.20;99.90
30206;DHT22;17010;51.306;3.150;2023-03-20T07:09:08;8.20;99.90
30206;DHT22;17010;51.306;3.150;2023-03-20T07:11:34;8.20;99.90
30206;DHT22;17010;51.306;3.150;2023-03-20T07:14:00;8.20;99.90
30206;DHT22;17010;51.306;3.150;2023-03-20T07:16:27;8.30;99.90
30206;DHT22;17010;51.306;3.150;2023-03-20T07:18:53;8.30;99.90
30206;DHT22;17010;51.306;3.150;2023-03-20T07:21:20;8.40;99.90
30206;DHT22;17010;51.306;3.150;2023-03-20T07:23:47;8.50;99.90
30206;DHT22;17010;51.306;3.150;2023-03-20T07:26:14;8.50;99.90
30206;DHT22;17010;51.306;3.150;2023-03-20T07:28:40;8.50;99.90
30206;DHT22;17010;51.306;3.150;2023-03-20T07:31:07;8.60;99.90
30206;DHT22;17010;51.306;3.150;2023-03-20T07:33:34;8.60;99.90
30206;DHT22;17010;51.306;3.150;2023-03-20T07:36:00;8.60;99.90
30206;DHT22;17010;51.306;3.150;2023-03-20T07:38:26;8.60;99.90
30206;DHT22;17010;51.306;3.150;2023-03-20T07:40:53;8.60;99.90
30206;DHT22;17010;51.306;3.150;2023-03-20T07:43:20;8.60;99.90
30206;DHT22;17010;51.306;3.150;2023-03-20T07:45:47;8.70;99.90
30206;DHT22;17010;51.306;3.150;2023-03-20T07:48:13;8.70;99.90
30206;DHT22;17010;51.306;3.150;2023-03-20T07:50:39;8.90;99.90
30206;DHT22;17010;51.306;3.150;2023-03-20T07:53:05;9.00;99.90
30206;DHT22;17010;51.306;3.150;2023-03-20T07:55:32;9.20;99.90
30206;DHT22;17010;51.306;3.150;2023-03-20T07:57:59;9.30;99.90
30206;DHT22;17010;51.306;3.150;2023-03-20T08:00:25;9.40;99.90
30206;DHT22;17010;51.306;3.150;2023-03-20T08:02:51;9.60;99.90
30206;DHT22;17010;51.306;3.150;2023-03-20T08:05:18;9.50;99.90
30206;DHT22;17010;51.306;3.150;2023-03-20T08:07:47;9.60;99.90
30206;DHT22;17010;51.306;3.150;2023-03-20T08:10:14;9.70;99.90
30206;DHT22;17010;51.306;3.150;2023-03-20T08:12:43;9.80;99.90
30206;DHT22;17010;51.306;3.150;2023-03-20T08:20:21;10.20;99.90
30206;DHT22;17010;51.306;3.150;2023-03-20T08:22:48;10.20;99.90
30206;DHT22;17010;51.306;3.150;2023-03-20T08:25:15;10.20;99.90
30206;DHT22;17010;51.306;3.150;2023-03-20T08:30:14;10.30;99.90
30206;DHT22;17010;51.306;3.150;2023-03-20T08:32:40;10.40;99.90
30206;DHT22;17010;51.306;3.150;2023-03-20T08:40:19;10.50;99.90
30206;DHT22;17010;51.306;3.150;2023-03-20T08:42:45;10.60;99.90
30206;DHT22;17010;51.306;3.150;2023-03-20T08:45:12;10.50;99.90
30206;DHT22;17010;51.306;3.150;2023-03-20T08:47:38;10.40;99.90
30206;DHT22;17010;51.306;3.150;2023-03-20T08:50:05;10.50;99.90
30206;DHT22;17010;51.306;3.150;2023-03-20T08:52:32;10.40;99.90
30206;DHT22;17010;51.306;3.150;2023-03-20T08:54:59;10.30;99.90
30206;DHT22;17010;51.306;3.150;2023-03-20T08:57:25;10.20;99.90
30206;DHT22;17010;51.306;3.150;2023-03-20T08:59:52;10.20;99.90
30206;DHT22;17010;51.306;3.150;2023-03-20T09:02:18;10.20;99.90
30206;DHT22;17010;51.306;3.150;2023-03-20T09:04:44;10.10;99.90
30206;DHT22;17010;51.306;3.150;2023-03-20T09:07:11;10.10;99.90
30206;DHT22;17010;51.306;3.150;2023-03-20T09:09:37;10.00;99.90
30206;DHT22;17010;51.306;3.150;2023-03-20T09:12:03;10.10;99.90
30206;DHT22;17010;51.306;3.150;2023-03-20T09:14:30;10.10;99.90
30206;DHT22;17010;51.306;3.150;2023-03-20T09:16:56;10.10;99.90
30206;DHT22;17010;51.306;3.150;2023-03-20T09:19:23;10.20;99.90
30206;DHT22;17010;51.306;3.150;2023-03-20T09:21:49;10.20;99.90
30206;DHT22;17010;51.306;3.150;2023-03-20T09:24:15;10.30;99.90
30206;DHT22;17010;51.306;3.150;2023-03-20T10:28:21;12.10;99.90
30206;DHT22;17010;51.306;3.150;2023-03-20T10:30:37;12.10;99.90
30206;DHT22;17010;51.306;3.150;2023-03-20T10:36:40;12.50;99.90
30206;DHT22;17010;51.306;3.150;2023-03-20T10:42:16;12.60;99.90
30206;DHT22;17010;51.306;3.150;2023-03-20T10:44:49;12.70;99.90
30206;DHT22;17010;51.306;3.150;2023-03-20T16:31:24;11.90;99.90
30206;DHT22;17010;51.306;3.150;2023-03-20T16:36:29;11.90;99.90
30206;DHT22;17010;51.306;3.150;2023-03-20T16:41:33;11.80;99.90
30206;DHT22;17010;51.306;3.150;2023-03-20T16:56:52;11.90;99.90
30206;DHT22;17010;51.306;3.150;2023-03-20T16:59:19;11.70;99.90
30206;DHT22;17010;51.306;3.150;2023-03-20T17:04:20;11.70;99.90
30206;DHT22;17010;51.306;3.150;2023-03-20T17:12:19;11.50;99.90
30206;DHT22;17010;51.306;3.150;2023-03-20T17:14:48;11.60;99.90
30206;DHT22;17010;51.306;3.150;2023-03-20T17:17:16;11.50;99.90
30206;DHT22;17010;51.306;3.150;2023-03-20T17:19:44;11.50;99.90
30206;DHT22;17010;51.306;3.150;2023-03-20T17:22:22;11.40;99.90
30206;DHT22;17010;51.306;3.150;2023-03-20T17:24:50;11.30;99.90
30206;DHT22;17010;51.306;3.150;2023-03-20T17:27:17;11.40;99.90
30206;DHT22;17010;51.306;3.150;2023-03-20T17:29:45;11.40;99.90
30206;DHT22;17010;51.306;3.150;2023-03-20T17:34:41;11.30;99.90
30206;DHT22;17010;51.306;3.150;2023-03-20T17:37:16;11.30;99.90
30206;DHT22;17010;51.306;3.150;2023-03-20T17:39:44;11.30;99.90
30206;DHT22;17010;51.306;3.150;2023-03-20T17:42:21;11.20;99.90
30206;DHT22;17010;51.306;3.150;2023-03-20T17:44:49;11.20;99.90
30206;DHT22;17010;51.306;3.150;2023-03-20T17:47:18;11.20;99.90
30206;DHT22;17010;51.306;3.150;2023-03-20T17:49:44;11.20;99.90
30206;DHT22;17010;51.306;3.150;2023-03-20T17:52:15;11.20;99.90
30206;DHT22;17010;51.306;3.150;2023-03-20T17:54:45;11.20;99.90
30206;DHT22;17010;51.306;3.150;2023-03-20T17:59:51;11.20;99.90
30206;DHT22;17010;51.306;3.150;2023-03-20T18:02:18;11.20;99.90
30206;DHT22;17010;51.306;3.150;2023-03-20T18:04:45;11.10;99.90
30206;DHT22;17010;51.306;3.150;2023-03-20T18:07:11;11.10;99.90
30206;DHT22;17010;51.306;3.150;2023-03-20T18:09:39;11.10;99.90
30206;DHT22;17010;51.306;3.150;2023-03-20T18:12:11;10.90;99.90
30206;DHT22;17010;51.306;3.150;2023-03-20T18:14:41;11.00;99.90
30206;DHT22;17010;51.306;3.150;2023-03-20T18:17:07;10.90;99.90
30206;DHT22;17010;51.306;3.150;2023-03-20T18:19:35;10.90;99.90
30206;DHT22;17010;51.306;3.150;2023-03-20T18:22:01;10.80;99.90
30206;DHT22;17010;51.306;3.150;2023-03-20T18:24:28;10.90;99.90
30206;DHT22;17010;51.306;3.150;2023-03-20T18:26:55;10.80;99.90
30206;DHT22;17010;51.306;3.150;2023-03-20T18:34:28;10.90;99.90
30206;DHT22;17010;51.306;3.150;2023-03-20T18:36:55;10.90;99.90
30206;DHT22;17010;51.306;3.150;2023-03-20T18:41:50;10.90;99.90
30206;DHT22;17010;51.306;3.150;2023-03-20T18:44:19;10.90;99.90
30206;DHT22;17010;51.306;3.150;2023-03-20T18:46:45;10.80;99.90
30206;DHT22;17010;51.306;3.150;2023-03-20T18:49:16;10.80;99.90
30206;DHT22;17010;51.306;3.150;2023-03-20T18:51:43;10.80;99.90
30206;DHT22;17010;51.306;3.150;2023-03-20T18:54:10;10.80;99.90
30206;DHT22;17010;51.306;3.150;2023-03-20T18:56:36;10.80;99.90
30206;DHT22;17010;51.306;3.150;2023-03-20T18:59:04;10.90;99.90
30206;DHT22;17010;51.306;3.150;2023-03-20T19:01:34;10.80;99.90
30206;DHT22;17010;51.306;3.150;2023-03-20T19:04:01;10.90;99.90
30206;DHT22;17010;51.306;3.150;2023-03-20T19:06:27;10.90;99.90
30206;DHT22;17010;51.306;3.150;2023-03-20T19:08:56;10.90;99.90
30206;DHT22;17010;51.306;3.150;2023-03-20T19:11:23;10.90;99.90
30206;DHT22;17010;51.306;3.150;2023-03-20T19:13:51;10.90;99.90
30206;DHT22;17010;51.306;3.150;2023-03-20T19:18:52;10.90;99.90
30206;DHT22;17010;51.306;3.150;2023-03-20T19:21:19;10.90;99.90
30206;DHT22;17010;51.306;3.150;2023-03-20T19:23:53;10.90;99.90
30206;DHT22;17010;51.306;3.150;2023-03-20T19:26:20;10.90;99.90
30206;DHT22;17010;51.306;3.150;2023-03-20T19:28:47;10.80;99.90
30206;DHT22;17010;51.306;3.150;2023-03-20T19:31:14;10.70;99.90
30206;DHT22;17010;51.306;3.150;2023-03-20T19:33:40;10.70;99.90
30206;DHT22;17010;51.306;3.150;2023-03-20T19:36:30;10.70;99.90
30206;DHT22;17010;51.306;3.150;2023-03-20T19:38:57;10.70;99.90
30206;DHT22;17010;51.306;3.150;2023-03-20T19:41:23;10.70;99.90
30206;DHT22;17010;51.306;3.150;2023-03-20T19:43:50;10.70;99.90
30206;DHT22;17010;51.306;3.150;2023-03-20T19:46:16;10.70;99.90
30206;DHT22;17010;51.306;3.150;2023-03-20T19:48:43;10.70;99.90
30206;DHT22;17010;51.306;3.150;2023-03-20T19:51:15;10.70;99.90
30206;DHT22;17010;51.306;3.150;2023-03-20T19:53:43;10.60;99.90
30206;DHT22;17010;51.306;3.150;2023-03-20T19:56:10;10.60;99.90
30206;DHT22;17010;51.306;3.150;2023-03-20T19:58:37;10.60;99.90
30206;DHT22;17010;51.306;3.150;2023-03-20T20:01:04;10.60;99.90
30206;DHT22;17010;51.306;3.150;2023-03-20T20:03:32;10.60;99.90
30206;DHT22;17010;51.306;3.150;2023-03-20T20:05:58;10.60;99.90
30206;DHT22;17010;51.306;3.150;2023-03-20T20:08:28;10.60;99.90
30206;DHT22;17010;51.306;3.150;2023-03-20T20:10:54;10.60;99.90
30206;DHT22;17010;51.306;3.150;2023-03-20T20:13:26;10.60;99.90
30206;DHT22;17010;51.306;3.150;2023-03-20T20:15:52;10.50;99.90
30206;DHT22;17010;51.306;3.150;2023-03-20T20:18:20;10.50;99.90
30206;DHT22;17010;51.306;3.150;2023-03-20T20:20:47;10.50;99.90
30206;DHT22;17010;51.306;3.150;2023-03-20T20:23:18;10.50;99.90
30206;DHT22;17010;51.306;3.150;2023-03-20T20:25:44;10.50;99.90
30206;DHT22;17010;51.306;3.150;2023-03-20T20:28:12;10.50;99.90
30206;DHT22;17010;51.306;3.150;2023-03-20T20:30:39;10.50;99.90
30206;DHT22;17010;51.306;3.150;2023-03-20T20:33:05;10.50;99.90
30206;DHT22;17010;51.306;3.150;2023-03-20T20:35:32;10.50;99.90
30206;DHT22;17010;51.306;3.150;2023-03-20T20:37:59;10.50;99.90
30206;DHT22;17010;51.306;3.150;2023-03-20T20:40:26;10.50;99.90
30206;DHT22;17010;51.306;3.150;2023-03-20T20:42:53;10.50;99.90
30206;DHT22;17010;51.306;3.150;2023-03-20T20:45:23;10.50;99.90
30206;DHT22;17010;51.306;3.150;2023-03-20T20:47:49;10.50;99.90
30206;DHT22;17010;51.306;3.150;2023-03-20T20:50:18;10.40;99.90
30206;DHT22;17010;51.306;3.150;2023-03-20T20:52:45;10.40;99.90
30206;DHT22;17010;51.306;3.150;2023-03-20T20:55:12;10.50;99.90
30206;DHT22;17010;51.306;3.150;2023-03-20T20:57:40;10.50;99.90
30206;DHT22;17010;51.306;3.150;2023-03-20T21:00:07;10.50;99.90
30206;DHT22;17010;51.306;3.150;2023-03-20T21:02:34;10.50;99.90
30206;DHT22;17010;51.306;3.150;2023-03-20T21:05:14;10.50;99.90
30206;DHT22;17010;51.306;3.150;2023-03-20T21:07:42;10.50;99.90
30206;DHT22;17010;51.306;3.150;2023-03-20T21:10:09;10.50;99.90
30206;DHT22;17010;51.306;3.150;2023-03-20T21:12:36;10.50;99.90
30206;DHT22;17010;51.306;3.150;2023-03-20T21:15:03;10.50;99.90
30206;DHT22;17010;51.306;3.150;2023-03-20T21:17:29;10.50;99.90
30206;DHT22;17010;51.306;3.150;2023-03-20T21:19:55;10.50;99.90
30206;DHT22;17010;51.306;3.150;2023-03-20T21:22:22;10.50;99.90
30206;DHT22;17010;51.306;3.150;2023-03-20T21:24:49;10.60;99.90
30206;DHT22;17010;51.306;3.150;2023-03-20T21:27:16;10.50;99.90
30206;DHT22;17010;51.306;3.150;2023-03-20T21:29:44;10.50;99.90
30206;DHT22;17010;51.306;3.150;2023-03-20T21:32:13;10.50;99.90
30206;DHT22;17010;51.306;3.150;2023-03-20T21:34:39;10.50;99.90
30206;DHT22;17010;51.306;3.150;2023-03-20T21:37:06;10.50;99.90
30206;DHT22;17010;51.306;3.150;2023-03-20T21:39:34;10.50;99.90
30206;DHT22;17010;51.306;3.150;2023-03-20T21:42:01;10.50;99.90
30206;DHT22;17010;51.306;3.150;2023-03-20T21:44:27;10.50;99.90
30206;DHT22;17010;51.306;3.150;2023-03-20T21:46:54;10.50;99.90
30206;DHT22;17010;51.306;3.150;2023-03-20T21:49:21;10.50;99.90
30206;DHT22;17010;51.306;3.150;2023-03-20T21:51:47;10.50;99.90
30206;DHT22;17010;51.306;3.150;2023-03-20T21:54:14;10.50;99.90
30206;DHT22;17010;51.306;3.150;2023-03-20T21:56:41;10.50;99.90
30206;DHT22;17010;51.306;3.150;2023-03-20T21:59:07;10.50;99.90
30206;DHT22;17010;51.306;3.150;2023-03-20T22:01:33;10.40;99.90
30206;DHT22;17010;51.306;3.150;2023-03-20T22:04:00;10.50;99.90
30206;DHT22;17010;51.306;3.150;2023-03-20T22:06:26;10.50;99.90
30206;DHT22;17010;51.306;3.150;2023-03-20T22:08:52;10.50;99.90
30206;DHT22;17010;51.306;3.150;2023-03-20T22:11:18;10.50;99.90
30206;DHT22;17010;51.306;3.150;2023-03-20T22:13:44;10.50;99.90
30206;DHT22;17010;51.306;3.150;2023-03-20T22:16:12;10.50;99.90
30206;DHT22;17010;51.306;3.150;2023-03-20T22:18:41;10.50;99.90
30206;DHT22;17010;51.306;3.150;2023-03-20T22:21:07;10.50;99.90
30206;DHT22;17010;51.306;3.150;2023-03-20T22:23:33;10.50;99.90
30206;DHT22;17010;51.306;3.150;2023-03-20T22:26:03;10.50;99.90
30206;DHT22;17010;51.306;3.150;2023-03-20T22:28:30;10.50;99.90
30206;DHT22;17010;51.306;3.150;2023-03-20T22:30:57;10.50;99.90
30206;DHT22;17010;51.306;3.150;2023-03-20T22:33:23;10.50;99.90
30206;DHT22;17010;51.306;3.150;2023-03-20T22:35:50;10.50;99.90
30206;DHT22;17010;51.306;3.150;2023-03-20T22:38:17;10.50;99.90
30206;DHT22;17010;51.306;3.150;2023-03-20T22:40:44;10.50;99.90
30206;DHT22;17010;51.306;3.150;2023-03-20T22:43:11;10.40;99.90
30206;DHT22;17010;51.306;3.150;2023-03-20T22:45:37;10.40;99.90
30206;DHT22;17010;51.306;3.150;2023-03-20T22:48:04;10.50;99.90
30206;DHT22;17010;51.306;3.150;2023-03-20T22:50:30;10.40;99.90
30206;DHT22;17010;51.306;3.150;2023-03-20T22:52:57;10.50;99.90
30206;DHT22;17010;51.306;3.150;2023-03-20T22:55:23;10.50;99.90
30206;DHT22;17010;51.306;3.150;2023-03-20T22:57:50;10.40;99.90
30206;DHT22;17010;51.306;3.150;2023-03-20T23:00:16;10.50;99.90
30206;DHT22;17010;51.306;3.150;2023-03-20T23:02:43;10.50;99.90
30206;DHT22;17010;51.306;3.150;2023-03-20T23:05:10;10.40;99.90
30206;DHT22;17010;51.306;3.150;2023-03-20T23:07:37;10.40;99.90
30206;DHT22;17010;51.306;3.150;2023-03-20T23:10:04;10.40;99.90
30206;DHT22;17010;51.306;3.150;2023-03-20T23:12:31;10.40;99.90
30206;DHT22;17010;51.306;3.150;2023-03-20T23:14:57;10.40;99.90
30206;DHT22;17010;51.306;3.150;2023-03-20T23:17:24;10.40;99.90
30206;DHT22;17010;51.306;3.150;2023-03-20T23:19:52;10.40;99.90
30206;DHT22;17010;51.306;3.150;2023-03-20T23:22:18;10.40;99.90
30206;DHT22;17010;51.306;3.150;2023-03-20T23:24:45;10.40;99.90
30206;DHT22;17010;51.306;3.150;2023-03-20T23:27:11;10.40;99.90
30206;DHT22;17010;51.306;3.150;2023-03-20T23:29:37;10.40;99.90
30206;DHT22;17010;51.306;3.150;2023-03-20T23:32:04;10.50;99.90
30206;DHT22;17010;51.306;3.150;2023-03-20T23:34:30;10.50;99.90
30206;DHT22;17010;51.306;3.150;2023-03-20T23:36:56;10.50;99.90
30206;DHT22;17010;51.306;3.150;2023-03-20T23:39:22;10.50;99.90
30206;DHT22;17010;51.306;3.150;2023-03-20T23:41:49;10.50;99.90
30206;DHT22;17010;51.306;3.150;2023-03-20T23:44:15;10.50;99.90
30206;DHT22;17010;51.306;3.150;2023-03-20T23:46:42;10.50;99.90
30206;DHT22;17010;51.306;3.150;2023-03-20T23:49:08;10.50;99.90
30206;DHT22;17010;51.306;3.150;2023-03-20T23:51:34;10.50;99.90
30206;DHT22;17010;51.306;3.150;2023-03-20T23:54:00;10.50;99.90
30206;DHT22;17010;51.306;3.150;2023-03-20T23:56:26;10.50;99.90
30206;DHT22;17010;51.306;3.150;2023-03-20T23:58:53;10.50;99.90
